sensor_id;sensor_type;location;lat;lon;timestamp;pressure;altitude;pressure_sealevel;temperature;humidity
61814;BME280;57055;-35.296;149.168;2022-09-24T00:01:31;94744.12;;;12.72;53.84
61814;BME280;57055;-35.296;149.168;2022-09-24T00:04:01;94746.00;;;12.97;54.03
61814;BME280;57055;-35.296;149.168;2022-09-24T00:06:34;94746.14;;;12.99;54.03
61814;BME280;57055;-35.296;149.168;2022-09-24T00:09:03;94739.73;;;12.98;53.59
61814;BME280;57055;-35.296;149.168;2022-09-24T00:11:33;94741.54;;;12.68;52.04
61814;BME280;57055;-35.296;149.168;2022-09-24T00:14:02;94735.60;;;12.64;52.44
61814;BME280;57055;-35.296;149.168;2022-09-24T00:16:32;94731.59;;;12.64;53.44
61814;BME280;57055;-35.296;149.168;2022-09-24T00:19:03;94732.64;;;12.70;53.40
61814;BME280;57055;-35.296;149.168;2022-09-24T00:21:34;94730.77;;;12.77;53.66
61814;BME280;57055;-35.296;149.168;2022-09-24T00:24:06;94731.16;;;12.93;51.17
61814;BME280;57055;-35.296;149.168;2022-09-24T00:26:35;94731.04;;;12.81;52.72
61814;BME280;57055;-35.296;149.168;2022-09-24T00:29:05;94723.38;;;12.63;52.79
61814;BME280;57055;-35.296;149.168;2022-09-24T00:31:35;94722.97;;;13.19;51.79
61814;BME280;57055;-35.296;149.168;2022-09-24T00:34:04;94722.91;;;12.99;52.23
61814;BME280;57055;-35.296;149.168;2022-09-24T00:36:33;94720.30;;;13.02;51.87
61814;BME280;57055;-35.296;149.168;2022-09-24T00:39:02;94713.95;;;12.86;52.00
61814;BME280;57055;-35.296;149.168;2022-09-24T00:41:34;94707.25;;;13.34;51.43
61814;BME280;57055;-35.296;149.168;2022-09-24T00:44:51;94699.45;;;13.37;50.91
61814;BME280;57055;-35.296;149.168;2022-09-24T00:47:28;94693.91;;;13.51;50.85
61814;BME280;57055;-35.296;149.168;2022-09-24T00:50:07;94692.72;;;13.66;51.61
61814;BME280;57055;-35.296;149.168;2022-09-24T00:52:41;94684.86;;;13.90;50.37
61814;BME280;57055;-35.296;149.168;2022-09-24T00:55:13;94678.96;;;14.28;50.04
61814;BME280;57055;-35.296;149.168;2022-09-24T00:57:44;94675.19;;;14.32;50.16
61814;BME280;57055;-35.296;149.168;2022-09-24T01:00:14;94668.30;;;14.32;50.24
61814;BME280;57055;-35.296;149.168;2022-09-24T01:02:45;94662.26;;;14.53;50.56
61814;BME280;57055;-35.296;149.168;2022-09-24T01:05:15;94658.53;;;14.52;49.35
61814;BME280;57055;-35.296;149.168;2022-09-24T01:07:43;94655.78;;;14.35;49.01
61814;BME280;57055;-35.296;149.168;2022-09-24T01:10:12;94656.14;;;14.80;50.54
61814;BME280;57055;-35.296;149.168;2022-09-24T01:12:49;94648.66;;;14.74;49.75
61814;BME280;57055;-35.296;149.168;2022-09-24T01:15:25;94643.81;;;15.04;50.80
61814;BME280;57055;-35.296;149.168;2022-09-24T01:18:01;94638.45;;;14.84;49.63
61814;BME280;57055;-35.296;149.168;2022-09-24T01:21:15;94633.00;;;15.58;49.61
61814;BME280;57055;-35.296;149.168;2022-09-24T01:24:01;94639.18;;;15.11;48.86
61814;BME280;57055;-35.296;149.168;2022-09-24T01:26:47;94634.57;;;14.94;49.84
61814;BME280;57055;-35.296;149.168;2022-09-24T01:29:30;94628.54;;;14.88;47.35
61814;BME280;57055;-35.296;149.168;2022-09-24T01:32:05;94628.00;;;14.98;47.25
61814;BME280;57055;-35.296;149.168;2022-09-24T01:34:39;94621.28;;;14.89;47.55
61814;BME280;57055;-35.296;149.168;2022-09-24T01:37:11;94617.93;;;15.07;48.48
61814;BME280;57055;-35.296;149.168;2022-09-24T01:39:42;94614.29;;;15.31;46.38
61814;BME280;57055;-35.296;149.168;2022-09-24T01:42:13;94609.53;;;15.13;47.47
61814;BME280;57055;-35.296;149.168;2022-09-24T01:44:43;94604.33;;;15.10;47.42
61814;BME280;57055;-35.296;149.168;2022-09-24T01:47:17;94600.78;;;15.54;46.93
61814;BME280;57055;-35.296;149.168;2022-09-24T01:49:47;94596.42;;;15.28;47.42
61814;BME280;57055;-35.296;149.168;2022-09-24T01:52:21;94592.74;;;15.34;47.56
61814;BME280;57055;-35.296;149.168;2022-09-24T01:54:52;94588.20;;;15.10;47.46
61814;BME280;57055;-35.296;149.168;2022-09-24T01:57:26;94588.24;;;15.23;47.74
61814;BME280;57055;-35.296;149.168;2022-09-24T02:00:00;94587.74;;;14.78;47.94
61814;BME280;57055;-35.296;149.168;2022-09-24T02:02:35;94586.35;;;15.12;47.34
61814;BME280;57055;-35.296;149.168;2022-09-24T02:05:12;94587.30;;;14.74;47.43
61814;BME280;57055;-35.296;149.168;2022-09-24T02:07:47;94586.45;;;14.91;47.81
61814;BME280;57055;-35.296;149.168;2022-09-24T02:10:19;94582.41;;;15.32;47.07
61814;BME280;57055;-35.296;149.168;2022-09-24T02:12:54;94578.06;;;15.52;47.19
61814;BME280;57055;-35.296;149.168;2022-09-24T02:15:29;94572.74;;;15.64;46.75
61814;BME280;57055;-35.296;149.168;2022-09-24T02:18:08;94565.19;;;15.83;45.57
61814;BME280;57055;-35.296;149.168;2022-09-24T02:20:41;94561.81;;;16.03;45.12
61814;BME280;57055;-35.296;149.168;2022-09-24T02:23:11;94559.64;;;15.95;45.34
61814;BME280;57055;-35.296;149.168;2022-09-24T02:25:45;94555.93;;;15.76;47.27
61814;BME280;57055;-35.296;149.168;2022-09-24T02:28:16;94557.15;;;15.41;45.23
61814;BME280;57055;-35.296;149.168;2022-09-24T02:30:50;94555.26;;;15.35;46.74
61814;BME280;57055;-35.296;149.168;2022-09-24T02:33:21;94553.57;;;15.37;46.34
61814;BME280;57055;-35.296;149.168;2022-09-24T02:35:52;94549.45;;;15.25;45.98
61814;BME280;57055;-35.296;149.168;2022-09-24T02:38:21;94551.21;;;15.38;46.77
61814;BME280;57055;-35.296;149.168;2022-09-24T02:40:50;94552.70;;;14.87;47.58
61814;BME280;57055;-35.296;149.168;2022-09-24T02:43:19;94547.00;;;14.94;47.16
61814;BME280;57055;-35.296;149.168;2022-09-24T02:45:48;94544.09;;;15.19;47.20
61814;BME280;57055;-35.296;149.168;2022-09-24T02:48:16;94542.16;;;14.93;47.49
61814;BME280;57055;-35.296;149.168;2022-09-24T02:50:45;94542.26;;;14.95;48.11
61814;BME280;57055;-35.296;149.168;2022-09-24T02:53:14;94542.40;;;14.88;48.61
61814;BME280;57055;-35.296;149.168;2022-09-24T02:55:43;94543.68;;;14.82;48.60
61814;BME280;57055;-35.296;149.168;2022-09-24T02:58:12;94543.42;;;15.05;49.25
61814;BME280;57055;-35.296;149.168;2022-09-24T03:00:40;94536.69;;;14.78;49.63
61814;BME280;57055;-35.296;149.168;2022-09-24T03:03:10;94527.33;;;14.75;48.62
61814;BME280;57055;-35.296;149.168;2022-09-24T03:05:38;94527.29;;;14.56;49.23
61814;BME280;57055;-35.296;149.168;2022-09-24T03:08:07;94526.33;;;14.56;49.29
61814;BME280;57055;-35.296;149.168;2022-09-24T03:10:35;94523.19;;;14.30;48.87
61814;BME280;57055;-35.296;149.168;2022-09-24T03:13:05;94516.53;;;14.56;50.08
61814;BME280;57055;-35.296;149.168;2022-09-24T03:15:33;94507.19;;;14.66;49.12
61814;BME280;57055;-35.296;149.168;2022-09-24T03:18:02;94500.29;;;14.60;49.49
61814;BME280;57055;-35.296;149.168;2022-09-24T03:20:31;94500.33;;;14.50;49.69
61814;BME280;57055;-35.296;149.168;2022-09-24T03:23:01;94500.41;;;14.94;48.51
61814;BME280;57055;-35.296;149.168;2022-09-24T03:25:30;94498.58;;;14.71;48.71
61814;BME280;57055;-35.296;149.168;2022-09-24T03:27:59;94498.31;;;14.78;49.02
61814;BME280;57055;-35.296;149.168;2022-09-24T03:30:27;94496.21;;;14.66;49.07
61814;BME280;57055;-35.296;149.168;2022-09-24T03:32:56;94492.46;;;14.49;49.27
61814;BME280;57055;-35.296;149.168;2022-09-24T03:35:25;94489.47;;;14.59;50.83
61814;BME280;57055;-35.296;149.168;2022-09-24T03:37:54;94496.29;;;14.54;51.69
61814;BME280;57055;-35.296;149.168;2022-09-24T03:40:24;94499.08;;;14.53;51.01
61814;BME280;57055;-35.296;149.168;2022-09-24T03:42:52;94500.21;;;14.17;50.43
61814;BME280;57055;-35.296;149.168;2022-09-24T03:45:21;94506.14;;;14.27;50.13
61814;BME280;57055;-35.296;149.168;2022-09-24T03:47:49;94509.90;;;14.23;50.04
61814;BME280;57055;-35.296;149.168;2022-09-24T03:50:18;94521.62;;;14.15;50.66
61814;BME280;57055;-35.296;149.168;2022-09-24T03:52:47;94522.53;;;14.36;51.64
61814;BME280;57055;-35.296;149.168;2022-09-24T03:55:16;94530.87;;;13.79;53.29
61814;BME280;57055;-35.296;149.168;2022-09-24T03:57:45;94522.94;;;14.11;52.90
61814;BME280;57055;-35.296;149.168;2022-09-24T04:00:14;94514.44;;;13.93;52.03
61814;BME280;57055;-35.296;149.168;2022-09-24T04:02:43;94510.40;;;13.53;52.09
61814;BME280;57055;-35.296;149.168;2022-09-24T04:05:13;94504.76;;;13.62;52.84
61814;BME280;57055;-35.296;149.168;2022-09-24T04:07:43;94501.68;;;13.33;51.94
61814;BME280;57055;-35.296;149.168;2022-09-24T04:10:12;94500.45;;;13.52;51.75
61814;BME280;57055;-35.296;149.168;2022-09-24T04:12:41;94501.12;;;13.48;52.18
61814;BME280;57055;-35.296;149.168;2022-09-24T04:15:10;94496.56;;;13.43;49.90
61814;BME280;57055;-35.296;149.168;2022-09-24T04:17:39;94495.83;;;13.61;50.65
61814;BME280;57055;-35.296;149.168;2022-09-24T04:20:08;94491.91;;;13.87;50.32
61814;BME280;57055;-35.296;149.168;2022-09-24T04:22:37;94488.01;;;13.96;49.74
61814;BME280;57055;-35.296;149.168;2022-09-24T04:25:07;94482.28;;;14.31;49.03
61814;BME280;57055;-35.296;149.168;2022-09-24T04:27:36;94473.14;;;14.04;48.47
61814;BME280;57055;-35.296;149.168;2022-09-24T04:30:06;94465.67;;;13.93;49.27
61814;BME280;57055;-35.296;149.168;2022-09-24T04:32:35;94462.96;;;14.07;49.21
61814;BME280;57055;-35.296;149.168;2022-09-24T04:35:04;94466.61;;;13.75;49.71
61814;BME280;57055;-35.296;149.168;2022-09-24T04:37:34;94475.19;;;14.03;49.82
61814;BME280;57055;-35.296;149.168;2022-09-24T04:40:04;94480.11;;;14.16;49.91
61814;BME280;57055;-35.296;149.168;2022-09-24T04:42:33;94475.06;;;14.36;49.43
61814;BME280;57055;-35.296;149.168;2022-09-24T04:45:02;94471.46;;;14.27;48.02
61814;BME280;57055;-35.296;149.168;2022-09-24T04:47:31;94470.76;;;14.35;48.02
61814;BME280;57055;-35.296;149.168;2022-09-24T04:50:01;94465.96;;;14.55;47.21
61814;BME280;57055;-35.296;149.168;2022-09-24T04:52:30;94465.52;;;14.77;47.53
61814;BME280;57055;-35.296;149.168;2022-09-24T04:55:01;94462.91;;;14.85;47.27
61814;BME280;57055;-35.296;149.168;2022-09-24T04:57:30;94468.49;;;14.99;46.61
61814;BME280;57055;-35.296;149.168;2022-09-24T05:00:00;94463.86;;;15.08;46.46
61814;BME280;57055;-35.296;149.168;2022-09-24T05:02:29;94460.08;;;15.21;46.96
61814;BME280;57055;-35.296;149.168;2022-09-24T05:04:58;94464.86;;;14.99;47.07
61814;BME280;57055;-35.296;149.168;2022-09-24T05:07:26;94459.09;;;14.94;46.54
61814;BME280;57055;-35.296;149.168;2022-09-24T05:09:56;94464.29;;;15.11;47.17
61814;BME280;57055;-35.296;149.168;2022-09-24T05:12:25;94468.08;;;14.94;47.21
61814;BME280;57055;-35.296;149.168;2022-09-24T05:14:54;94472.25;;;14.65;48.05
61814;BME280;57055;-35.296;149.168;2022-09-24T05:17:22;94474.64;;;14.46;48.69
61814;BME280;57055;-35.296;149.168;2022-09-24T05:19:51;94477.03;;;14.37;49.34
61814;BME280;57055;-35.296;149.168;2022-09-24T05:22:19;94478.56;;;14.59;49.97
61814;BME280;57055;-35.296;149.168;2022-09-24T05:24:48;94475.55;;;14.41;50.64
61814;BME280;57055;-35.296;149.168;2022-09-24T05:27:17;94477.69;;;14.42;51.25
61814;BME280;57055;-35.296;149.168;2022-09-24T05:29:45;94480.05;;;14.58;52.37
61814;BME280;57055;-35.296;149.168;2022-09-24T05:32:16;94468.91;;;14.58;53.68
61814;BME280;57055;-35.296;149.168;2022-09-24T05:34:45;94477.95;;;15.04;52.56
61814;BME280;57055;-35.296;149.168;2022-09-24T05:37:15;94483.32;;;14.95;52.09
61814;BME280;57055;-35.296;149.168;2022-09-24T05:39:44;94480.90;;;15.26;50.78
61814;BME280;57055;-35.296;149.168;2022-09-24T05:42:13;94493.59;;;15.44;49.70
61814;BME280;57055;-35.296;149.168;2022-09-24T05:44:42;94494.02;;;15.08;47.92
61814;BME280;57055;-35.296;149.168;2022-09-24T05:47:10;94499.78;;;15.33;46.48
61814;BME280;57055;-35.296;149.168;2022-09-24T05:49:40;94499.95;;;15.34;45.79
61814;BME280;57055;-35.296;149.168;2022-09-24T05:52:08;94505.50;;;15.64;45.02
61814;BME280;57055;-35.296;149.168;2022-09-24T05:54:37;94509.09;;;15.13;45.38
61814;BME280;57055;-35.296;149.168;2022-09-24T05:57:06;94512.52;;;15.38;44.54
61814;BME280;57055;-35.296;149.168;2022-09-24T05:59:34;94510.59;;;15.62;44.45
61814;BME280;57055;-35.296;149.168;2022-09-24T06:02:03;94519.29;;;15.08;44.58
61814;BME280;57055;-35.296;149.168;2022-09-24T06:04:31;94520.32;;;15.34;45.12
61814;BME280;57055;-35.296;149.168;2022-09-24T06:07:00;94527.31;;;15.04;45.09
61814;BME280;57055;-35.296;149.168;2022-09-24T06:09:28;94520.15;;;15.20;45.62
61814;BME280;57055;-35.296;149.168;2022-09-24T06:11:57;94531.42;;;15.05;46.25
61814;BME280;57055;-35.296;149.168;2022-09-24T06:14:26;94534.37;;;15.16;47.00
61814;BME280;57055;-35.296;149.168;2022-09-24T06:16:55;94542.16;;;14.82;47.67
61814;BME280;57055;-35.296;149.168;2022-09-24T06:19:24;94551.90;;;14.90;47.23
61814;BME280;57055;-35.296;149.168;2022-09-24T06:21:52;94554.61;;;14.73;46.57
61814;BME280;57055;-35.296;149.168;2022-09-24T06:24:22;94551.93;;;14.58;45.47
61814;BME280;57055;-35.296;149.168;2022-09-24T06:26:52;94554.73;;;14.60;45.40
61814;BME280;57055;-35.296;149.168;2022-09-24T06:29:22;94560.23;;;14.39;45.22
61814;BME280;57055;-35.296;149.168;2022-09-24T06:31:51;94565.87;;;14.16;45.72
61814;BME280;57055;-35.296;149.168;2022-09-24T06:34:21;94576.01;;;14.06;45.81
61814;BME280;57055;-35.296;149.168;2022-09-24T06:36:54;94577.76;;;14.46;45.43
61814;BME280;57055;-35.296;149.168;2022-09-24T06:39:23;94575.44;;;13.95;45.64
61814;BME280;57055;-35.296;149.168;2022-09-24T06:41:53;94572.40;;;14.26;45.72
61814;BME280;57055;-35.296;149.168;2022-09-24T06:44:22;94572.29;;;13.74;45.50
61814;BME280;57055;-35.296;149.168;2022-09-24T06:46:52;94577.14;;;14.15;45.84
61814;BME280;57055;-35.296;149.168;2022-09-24T06:49:21;94578.04;;;13.87;45.88
61814;BME280;57055;-35.296;149.168;2022-09-24T06:51:53;94581.81;;;14.10;44.93
61814;BME280;57055;-35.296;149.168;2022-09-24T06:54:23;94588.34;;;13.79;45.24
61814;BME280;57055;-35.296;149.168;2022-09-24T06:56:52;94588.99;;;13.92;44.92
61814;BME280;57055;-35.296;149.168;2022-09-24T06:59:22;94590.52;;;13.81;44.61
61814;BME280;57055;-35.296;149.168;2022-09-24T07:01:51;94585.62;;;13.72;44.46
61814;BME280;57055;-35.296;149.168;2022-09-24T07:04:21;94591.06;;;13.68;44.97
61814;BME280;57055;-35.296;149.168;2022-09-24T07:06:50;94588.06;;;13.63;45.20
61814;BME280;57055;-35.296;149.168;2022-09-24T07:09:20;94589.90;;;13.59;44.89
61814;BME280;57055;-35.296;149.168;2022-09-24T07:11:51;94596.52;;;13.55;44.99
61814;BME280;57055;-35.296;149.168;2022-09-24T07:14:20;94604.72;;;13.44;45.09
61814;BME280;57055;-35.296;149.168;2022-09-24T07:16:50;94605.33;;;13.65;45.00
61814;BME280;57055;-35.296;149.168;2022-09-24T07:19:20;94615.79;;;13.40;44.64
61814;BME280;57055;-35.296;149.168;2022-09-24T07:21:49;94616.53;;;13.39;44.13
61814;BME280;57055;-35.296;149.168;2022-09-24T07:24:18;94618.89;;;13.29;44.12
61814;BME280;57055;-35.296;149.168;2022-09-24T07:26:48;94625.19;;;13.06;44.32
61814;BME280;57055;-35.296;149.168;2022-09-24T07:29:17;94631.05;;;13.23;44.43
61814;BME280;57055;-35.296;149.168;2022-09-24T07:31:47;94638.60;;;13.10;44.84
61814;BME280;57055;-35.296;149.168;2022-09-24T07:34:16;94642.76;;;13.09;44.94
61814;BME280;57055;-35.296;149.168;2022-09-24T07:36:46;94648.06;;;13.10;44.84
61814;BME280;57055;-35.296;149.168;2022-09-24T07:39:17;94646.27;;;13.01;44.84
61814;BME280;57055;-35.296;149.168;2022-09-24T07:41:45;94646.77;;;12.97;44.58
61814;BME280;57055;-35.296;149.168;2022-09-24T07:44:15;94642.23;;;12.85;45.09
61814;BME280;57055;-35.296;149.168;2022-09-24T07:46:47;94645.53;;;13.21;45.48
61814;BME280;57055;-35.296;149.168;2022-09-24T07:49:16;94645.86;;;13.18;45.87
61814;BME280;57055;-35.296;149.168;2022-09-24T07:51:46;94651.00;;;13.10;46.05
61814;BME280;57055;-35.296;149.168;2022-09-24T07:54:16;94649.72;;;13.10;46.28
61814;BME280;57055;-35.296;149.168;2022-09-24T07:56:46;94650.69;;;12.81;46.89
61814;BME280;57055;-35.296;149.168;2022-09-24T07:59:16;94650.23;;;12.52;47.20
61814;BME280;57055;-35.296;149.168;2022-09-24T08:01:46;94654.74;;;12.71;47.65
61814;BME280;57055;-35.296;149.168;2022-09-24T08:04:16;94658.48;;;12.59;47.99
61814;BME280;57055;-35.296;149.168;2022-09-24T08:06:45;94667.02;;;12.78;48.12
61814;BME280;57055;-35.296;149.168;2022-09-24T08:09:16;94668.68;;;12.71;48.45
61814;BME280;57055;-35.296;149.168;2022-09-24T08:11:47;94669.00;;;12.69;48.80
61814;BME280;57055;-35.296;149.168;2022-09-24T08:14:16;94675.17;;;12.46;48.75
61814;BME280;57055;-35.296;149.168;2022-09-24T08:16:46;94678.48;;;12.62;48.88
61814;BME280;57055;-35.296;149.168;2022-09-24T08:19:15;94689.43;;;12.57;49.16
61814;BME280;57055;-35.296;149.168;2022-09-24T08:21:45;94700.54;;;12.06;49.12
61814;BME280;57055;-35.296;149.168;2022-09-24T08:24:15;94706.06;;;12.62;49.15
61814;BME280;57055;-35.296;149.168;2022-09-24T08:26:44;94713.73;;;12.59;49.30
61814;BME280;57055;-35.296;149.168;2022-09-24T08:29:14;94716.47;;;12.50;49.39
61814;BME280;57055;-35.296;149.168;2022-09-24T08:31:43;94720.99;;;12.56;49.56
61814;BME280;57055;-35.296;149.168;2022-09-24T08:34:13;94725.36;;;12.52;49.76
61814;BME280;57055;-35.296;149.168;2022-09-24T08:36:43;94731.23;;;12.50;49.97
61814;BME280;57055;-35.296;149.168;2022-09-24T08:39:12;94735.67;;;12.19;50.39
61814;BME280;57055;-35.296;149.168;2022-09-24T08:41:53;94735.16;;;12.19;50.52
61814;BME280;57055;-35.296;149.168;2022-09-24T08:44:28;94738.86;;;12.37;50.72
61814;BME280;57055;-35.296;149.168;2022-09-24T08:47:01;94742.55;;;12.28;50.85
61814;BME280;57055;-35.296;149.168;2022-09-24T08:49:36;94745.41;;;12.18;51.22
61814;BME280;57055;-35.296;149.168;2022-09-24T08:52:20;94746.69;;;12.10;51.56
61814;BME280;57055;-35.296;149.168;2022-09-24T08:54:54;94747.44;;;12.04;51.73
61814;BME280;57055;-35.296;149.168;2022-09-24T08:57:25;94749.92;;;12.05;51.96
61814;BME280;57055;-35.296;149.168;2022-09-24T08:59:55;94752.75;;;12.08;52.04
61814;BME280;57055;-35.296;149.168;2022-09-24T09:02:36;94755.38;;;11.98;52.37
61814;BME280;57055;-35.296;149.168;2022-09-24T09:05:19;94760.70;;;11.89;52.73
61814;BME280;57055;-35.296;149.168;2022-09-24T09:07:59;94771.99;;;11.95;52.94
61814;BME280;57055;-35.296;149.168;2022-09-24T09:10:32;94781.96;;;12.03;52.83
61814;BME280;57055;-35.296;149.168;2022-09-24T09:13:12;94788.63;;;11.91;53.14
61814;BME280;57055;-35.296;149.168;2022-09-24T09:15:50;94799.36;;;11.91;53.13
61814;BME280;57055;-35.296;149.168;2022-09-24T09:18:25;94800.11;;;11.93;53.20
61814;BME280;57055;-35.296;149.168;2022-09-24T09:21:05;94803.28;;;11.88;53.43
61814;BME280;57055;-35.296;149.168;2022-09-24T09:23:40;94805.84;;;12.04;53.57
61814;BME280;57055;-35.296;149.168;2022-09-24T09:26:18;94813.53;;;11.77;53.64
61814;BME280;57055;-35.296;149.168;2022-09-24T09:28:48;94821.72;;;11.78;53.50
61814;BME280;57055;-35.296;149.168;2022-09-24T09:31:29;94823.09;;;11.74;53.53
61814;BME280;57055;-35.296;149.168;2022-09-24T09:34:12;94821.84;;;11.72;53.46
61814;BME280;57055;-35.296;149.168;2022-09-24T09:36:55;94824.56;;;11.58;53.35
61814;BME280;57055;-35.296;149.168;2022-09-24T09:39:36;94828.77;;;11.51;53.47
61814;BME280;57055;-35.296;149.168;2022-09-24T09:42:22;94831.60;;;11.73;53.34
61814;BME280;57055;-35.296;149.168;2022-09-24T09:44:54;94835.95;;;11.94;53.25
61814;BME280;57055;-35.296;149.168;2022-09-24T09:47:33;94837.64;;;11.58;53.30
61814;BME280;57055;-35.296;149.168;2022-09-24T09:50:10;94844.03;;;11.44;53.16
61814;BME280;57055;-35.296;149.168;2022-09-24T09:52:43;94845.60;;;11.34;53.19
61814;BME280;57055;-35.296;149.168;2022-09-24T09:55:23;94852.05;;;11.46;53.40
61814;BME280;57055;-35.296;149.168;2022-09-24T09:57:57;94854.96;;;11.52;53.60
61814;BME280;57055;-35.296;149.168;2022-09-24T10:00:35;94855.78;;;11.05;53.84
61814;BME280;57055;-35.296;149.168;2022-09-24T10:03:05;94862.90;;;11.26;53.82
61814;BME280;57055;-35.296;149.168;2022-09-24T10:05:34;94869.61;;;11.48;53.73
61814;BME280;57055;-35.296;149.168;2022-09-24T10:08:04;94877.76;;;11.01;54.19
61814;BME280;57055;-35.296;149.168;2022-09-24T10:10:33;94880.87;;;11.28;54.45
61814;BME280;57055;-35.296;149.168;2022-09-24T10:13:08;94883.34;;;11.33;54.65
61814;BME280;57055;-35.296;149.168;2022-09-24T10:15:48;94886.49;;;11.31;54.59
61814;BME280;57055;-35.296;149.168;2022-09-24T10:18:26;94886.65;;;11.32;54.44
61814;BME280;57055;-35.296;149.168;2022-09-24T10:20:57;94888.48;;;11.23;54.30
61814;BME280;57055;-35.296;149.168;2022-09-24T10:23:34;94889.31;;;11.20;54.34
61814;BME280;57055;-35.296;149.168;2022-09-24T10:26:05;94885.01;;;11.11;54.59
61814;BME280;57055;-35.296;149.168;2022-09-24T10:28:39;94889.51;;;10.92;54.89
61814;BME280;57055;-35.296;149.168;2022-09-24T10:31:13;94890.28;;;11.01;55.13
61814;BME280;57055;-35.296;149.168;2022-09-24T10:33:46;94891.18;;;10.73;54.66
61814;BME280;57055;-35.296;149.168;2022-09-24T10:36:20;94893.71;;;11.09;54.57
61814;BME280;57055;-35.296;149.168;2022-09-24T10:38:59;94892.68;;;10.97;54.66
61814;BME280;57055;-35.296;149.168;2022-09-24T10:41:30;94891.10;;;10.90;54.68
61814;BME280;57055;-35.296;149.168;2022-09-24T10:44:03;94891.01;;;10.60;55.43
61814;BME280;57055;-35.296;149.168;2022-09-24T10:46:46;94889.12;;;10.75;56.07
61814;BME280;57055;-35.296;149.168;2022-09-24T10:49:29;94889.28;;;10.72;56.90
61814;BME280;57055;-35.296;149.168;2022-09-24T10:52:10;94891.94;;;10.75;57.05
61814;BME280;57055;-35.296;149.168;2022-09-24T10:54:53;94892.13;;;10.61;57.38
61814;BME280;57055;-35.296;149.168;2022-09-24T10:57:33;94893.84;;;10.42;56.93
61814;BME280;57055;-35.296;149.168;2022-09-24T11:00:10;94896.14;;;10.66;57.08
61814;BME280;57055;-35.296;149.168;2022-09-24T11:02:56;94899.84;;;10.55;57.38
61814;BME280;57055;-35.296;149.168;2022-09-24T11:05:33;94899.48;;;10.53;57.56
61814;BME280;57055;-35.296;149.168;2022-09-24T11:08:11;94894.34;;;10.55;57.62
61814;BME280;57055;-35.296;149.168;2022-09-24T11:11:02;94892.88;;;10.49;57.90
61814;BME280;57055;-35.296;149.168;2022-09-24T11:13:41;94890.39;;;10.70;57.97
61814;BME280;57055;-35.296;149.168;2022-09-24T11:16:35;94892.01;;;10.41;58.17
61814;BME280;57055;-35.296;149.168;2022-09-24T11:19:13;94890.32;;;10.36;58.31
61814;BME280;57055;-35.296;149.168;2022-09-24T11:21:59;94896.48;;;10.44;58.49
61814;BME280;57055;-35.296;149.168;2022-09-24T11:24:45;94902.26;;;10.08;58.83
61814;BME280;57055;-35.296;149.168;2022-09-24T11:27:40;94909.78;;;9.94;59.15
61814;BME280;57055;-35.296;149.168;2022-09-24T11:30:13;94912.50;;;10.42;59.05
61814;BME280;57055;-35.296;149.168;2022-09-24T11:32:55;94918.08;;;10.28;59.30
61814;BME280;57055;-35.296;149.168;2022-09-24T11:35:43;94917.90;;;10.07;59.20
61814;BME280;57055;-35.296;149.168;2022-09-24T11:38:18;94923.08;;;10.22;59.54
61814;BME280;57055;-35.296;149.168;2022-09-24T11:41:10;94923.10;;;9.92;59.64
61814;BME280;57055;-35.296;149.168;2022-09-24T11:43:57;94921.53;;;9.92;59.60
61814;BME280;57055;-35.296;149.168;2022-09-24T11:46:45;94920.53;;;10.21;59.53
61814;BME280;57055;-35.296;149.168;2022-09-24T11:49:30;94922.16;;;9.84;59.64
61814;BME280;57055;-35.296;149.168;2022-09-24T11:52:08;94926.91;;;9.73;59.76
61814;BME280;57055;-35.296;149.168;2022-09-24T11:54:44;94930.82;;;9.89;60.15
61814;BME280;57055;-35.296;149.168;2022-09-24T11:57:20;94930.35;;;9.89;59.92
61814;BME280;57055;-35.296;149.168;2022-09-24T11:59:54;94932.52;;;9.75;60.27
61814;BME280;57055;-35.296;149.168;2022-09-24T12:02:29;94934.73;;;9.75;60.36
61814;BME280;57055;-35.296;149.168;2022-09-24T12:05:04;94936.32;;;9.62;60.78
61814;BME280;57055;-35.296;149.168;2022-09-24T12:07:41;94937.84;;;9.64;60.64
61814;BME280;57055;-35.296;149.168;2022-09-24T12:10:24;94940.62;;;9.56;60.90
61814;BME280;57055;-35.296;149.168;2022-09-24T12:13:01;94941.78;;;9.54;61.05
61814;BME280;57055;-35.296;149.168;2022-09-24T12:15:43;94942.50;;;9.52;61.22
61814;BME280;57055;-35.296;149.168;2022-09-24T12:18:19;94940.10;;;9.37;61.05
61814;BME280;57055;-35.296;149.168;2022-09-24T12:20:53;94942.65;;;9.72;61.15
61814;BME280;57055;-35.296;149.168;2022-09-24T12:23:25;94948.99;;;9.85;60.90
61814;BME280;57055;-35.296;149.168;2022-09-24T12:25:59;94954.15;;;9.97;60.80
61814;BME280;57055;-35.296;149.168;2022-09-24T12:28:37;94955.69;;;10.12;60.56
61814;BME280;57055;-35.296;149.168;2022-09-24T12:31:13;94954.34;;;10.23;60.25
61814;BME280;57055;-35.296;149.168;2022-09-24T12:33:53;94956.55;;;10.03;60.07
61814;BME280;57055;-35.296;149.168;2022-09-24T12:36:28;94956.46;;;10.35;59.96
61814;BME280;57055;-35.296;149.168;2022-09-24T12:39:03;94954.41;;;10.12;59.88
61814;BME280;57055;-35.296;149.168;2022-09-24T12:41:36;94950.29;;;9.84;59.92
61814;BME280;57055;-35.296;149.168;2022-09-24T12:44:13;94950.34;;;10.06;59.76
61814;BME280;57055;-35.296;149.168;2022-09-24T12:46:47;94944.62;;;10.25;59.93
61814;BME280;57055;-35.296;149.168;2022-09-24T12:49:26;94943.55;;;9.75;59.89
61814;BME280;57055;-35.296;149.168;2022-09-24T12:51:58;94941.60;;;10.12;59.89
61814;BME280;57055;-35.296;149.168;2022-09-24T12:54:30;94944.76;;;9.73;60.17
61814;BME280;57055;-35.296;149.168;2022-09-24T12:57:10;94945.46;;;9.89;60.38
61814;BME280;57055;-35.296;149.168;2022-09-24T12:59:49;94945.75;;;9.78;60.78